Time;durP1;ratioP1;P1;durP2;ratioP2;P2;SDS_P1;SDS_P2;PMS_P1;PMS_P2;Temp;Humidity;BMP_temperature;BMP_pressure;BME280_temperature;BME280_humidity;BME280_pressure;Samples;Min_cycle;Max_cycle;Signal;HPM_P1;HPM_P2
2023/02/03 00:01:09;;;;;;;15.57;11.73;;;;;;;;;;4952898;28;20461;-77
2023/02/03 00:03:34;;;;;;;11.23;10.03;;;;;;;;;;4954023;28;20189;-76
2023/02/03 00:06:01;;;;;;;14.37;9.83;;;;;;;;;;4947227;28;20482;-78
2023/02/03 00:08:27;;;;;;;14.00;10.87;;;;;;;;;;4960214;28;20441;-77
2023/02/03 00:10:54;;;;;;;15.30;12.00;;;;;;;;;;4956041;28;20542;-78
2023/02/03 00:13:20;;;;;;;12.17;10.93;;;;;;;;;;4959279;28;20524;-77
2023/02/03 00:15:46;;;;;;;14.57;11.00;;;;;;;;;;4948562;28;20573;-78
2023/02/03 00:18:12;;;;;;;13.77;12.30;;;;;;;;;;4944724;28;20453;-78
2023/02/03 00:20:38;;;;;;;13.60;12.23;;;;;;;;;;4956316;28;20445;-77
2023/02/03 00:23:05;;;;;;;20.00;13.03;;;;;;;;;;4957199;28;20442;-76
2023/02/03 00:25:31;;;;;;;13.43;11.50;;;;;;;;;;4953375;28;20430;-76
2023/02/03 00:27:57;;;;;;;16.60;13.53;;;;;;;;;;4929802;28;20783;-77
2023/02/03 00:30:23;;;;;;;14.60;13.17;;;;;;;;;;4952504;28;20445;-77
2023/02/03 00:32:49;;;;;;;14.40;12.33;;;;;;;;;;4953494;28;20470;-77
2023/02/03 00:35:15;;;;;;;17.40;12.30;;;;;;;;;;4947156;28;20757;-76
2023/02/03 00:37:41;;;;;;;12.10;10.73;;;;;;;;;;4948331;28;20529;-76
2023/02/03 00:40:07;;;;;;;15.57;11.67;;;;;;;;;;4946424;28;21017;-76
2023/02/03 00:42:34;;;;;;;12.77;11.03;;;;;;;;;;4944718;28;20431;-77
2023/02/03 00:45:00;;;;;;;14.70;11.07;;;;;;;;;;4948053;28;20915;-76
2023/02/03 00:47:26;;;;;;;13.23;11.23;;;;;;;;;;4936175;29;20522;-78
2023/02/03 00:49:52;;;;;;;10.50;9.47;;;;;;;;;;4943750;28;20456;-76
2023/02/03 00:52:18;;;;;;;13.40;11.23;;;;;;;;;;4937946;29;20588;-77
2023/02/03 00:54:44;;;;;;;17.60;11.03;;;;;;;;;;4947047;28;20442;-77
2023/02/03 00:57:10;;;;;;;16.10;12.13;;;;;;;;;;4936088;28;20459;-76
2023/02/03 00:59:36;;;;;;;19.00;12.20;;;;;;;;;;4938610;28;20442;-76
2023/02/03 01:02:02;;;;;;;16.73;11.83;;;;;;;;;;4952985;28;20438;-77
2023/02/03 01:04:28;;;;;;;10.10;9.03;;;;;;;;;;4939974;29;20806;-77
2023/02/03 01:06:56;;;;;;;12.53;10.43;;;;;;;;;;4940162;29;20440;-77
2023/02/03 01:09:22;;;;;;;12.03;10.77;;;;;;;;;;4932221;29;20446;-77
2023/02/03 01:11:48;;;;;;;12.47;10.13;;;;;;;;;;4945931;28;21011;-77
2023/02/03 01:14:14;;;;;;;15.10;10.23;;;;;;;;;;4950997;28;20434;-77
2023/02/03 01:16:40;;;;;;;15.97;10.23;;;;;;;;;;4959246;28;20449;-76
2023/02/03 01:19:06;;;;;;;11.23;9.47;;;;;;;;;;4938389;28;20438;-76
2023/02/03 01:21:32;;;;;;;12.23;10.93;;;;;;;;;;4956259;28;20999;-76
2023/02/03 01:23:59;;;;;;;14.53;10.87;;;;;;;;;;4965371;28;20441;-76
2023/02/03 01:26:25;;;;;;;12.73;10.50;;;;;;;;;;4954954;28;20450;-76
2023/02/03 01:28:56;;;;;;;11.17;9.53;;;;;;;;;;4956121;28;20518;-77
2023/02/03 01:31:23;;;;;;;11.20;10.27;;;;;;;;;;4965648;28;20523;-77
2023/02/03 01:33:51;;;;;;;13.17;8.37;;;;;;;;;;4935341;28;20455;-77
2023/02/03 01:36:17;;;;;;;18.33;10.73;;;;;;;;;;4956361;28;20839;-78
2023/02/03 01:38:44;;;;;;;11.90;8.70;;;;;;;;;;4959354;28;20789;-77
2023/02/03 01:41:13;;;;;;;11.63;9.50;;;;;;;;;;4950221;28;20472;-77
2023/02/03 01:43:40;;;;;;;17.50;10.87;;;;;;;;;;4956942;28;20465;-77
2023/02/03 01:46:28;;;;;;;15.10;10.10;;;;;;;;;;4954421;28;20444;-77
2023/02/03 01:48:55;;;;;;;15.30;11.17;;;;;;;;;;4933995;28;20435;-75
2023/02/03 01:51:22;;;;;;;10.90;9.77;;;;;;;;;;4956219;28;20560;-76
2023/02/03 01:53:49;;;;;;;8.33;7.60;;;;;;;;;;4960067;28;20430;-77
2023/02/03 01:56:15;;;;;;;12.03;9.20;;;;;;;;;;4939373;28;20492;-77
2023/02/03 01:58:42;;;;;;;10.80;9.73;;;;;;;;;;4938475;28;20775;-79
2023/02/03 02:01:08;;;;;;;15.90;9.57;;;;;;;;;;4956312;28;20501;-78
2023/02/03 02:03:41;;;;;;;10.30;9.27;;;;;;;;;;4957593;28;20479;-77
2023/02/03 02:06:09;;;;;;;14.20;9.03;;;;;;;;;;4934708;28;20445;-77
2023/02/03 02:08:36;;;;;;;9.83;8.73;;;;;;;;;;4937909;28;20443;-77
2023/02/03 02:11:02;;;;;;;13.50;10.57;;;;;;;;;;4957045;28;20528;-77
2023/02/03 02:13:30;;;;;;;9.90;7.30;;;;;;;;;;4934409;28;20466;-77
2023/02/03 02:15:55;;;;;;;11.87;9.50;;;;;;;;;;4961015;28;20484;-76
2023/02/03 02:18:24;;;;;;;10.23;9.17;;;;;;;;;;4939506;28;20483;-77
2023/02/03 02:20:50;;;;;;;11.20;9.30;;;;;;;;;;4943328;28;20516;-77
2023/02/03 02:23:36;;;;;;;8.30;7.50;;;;;;;;;;4931940;28;20526;-77
2023/02/03 02:26:21;;;;;;;15.03;9.80;;;;;;;;;;4943104;28;20637;-77
2023/02/03 02:28:59;;;;;;;11.60;9.80;;;;;;;;;;4937510;28;20699;-77
2023/02/03 02:31:28;;;;;;;10.13;9.17;;;;;;;;;;4954542;28;20464;-78
2023/02/03 02:34:03;;;;;;;10.37;8.80;;;;;;;;;;4964261;28;20548;-77
2023/02/03 02:36:34;;;;;;;15.83;8.47;;;;;;;;;;4932771;29;20833;-77
2023/02/03 02:39:06;;;;;;;10.50;8.00;;;;;;;;;;4951968;28;20532;-77
2023/02/03 02:41:44;;;;;;;11.47;10.27;;;;;;;;;;4950445;28;20434;-77
2023/02/03 02:44:21;;;;;;;13.47;9.30;;;;;;;;;;4947712;28;20484;-76
2023/02/03 02:46:49;;;;;;;13.67;10.40;;;;;;;;;;4951876;28;20438;-77
2023/02/03 02:49:15;;;;;;;16.83;9.37;;;;;;;;;;4955519;28;20548;-75
2023/02/03 02:51:44;;;;;;;10.87;9.70;;;;;;;;;;4952319;28;20513;-75
2023/02/03 02:54:12;;;;;;;10.63;8.50;;;;;;;;;;4950533;28;20517;-76
2023/02/03 02:56:39;;;;;;;10.00;8.63;;;;;;;;;;4955970;28;20844;-76
2023/02/03 02:59:05;;;;;;;10.47;8.03;;;;;;;;;;4954570;28;20438;-77
2023/02/03 03:01:32;;;;;;;7.23;6.53;;;;;;;;;;4959633;28;20941;-75
2023/02/03 03:03:59;;;;;;;10.03;8.40;;;;;;;;;;4936956;28;20478;-76
2023/02/03 03:06:28;;;;;;;12.23;8.57;;;;;;;;;;4959826;28;20962;-77
2023/02/03 03:09:04;;;;;;;11.43;7.73;;;;;;;;;;4933201;28;20446;-75
2023/02/03 03:11:33;;;;;;;7.53;6.90;;;;;;;;;;4943420;28;20991;-75
2023/02/03 03:14:01;;;;;;;12.17;8.07;;;;;;;;;;4951460;28;20905;-75
2023/02/03 03:16:29;;;;;;;9.00;6.57;;;;;;;;;;4953717;28;20446;-76
2023/02/03 03:19:04;;;;;;;8.60;7.70;;;;;;;;;;4941118;28;20446;-76
2023/02/03 03:21:36;;;;;;;9.20;7.10;;;;;;;;;;4959118;28;20936;-77
2023/02/03 03:24:04;;;;;;;6.50;5.90;;;;;;;;;;4946613;29;20694;-76
2023/02/03 03:26:34;;;;;;;7.40;6.70;;;;;;;;;;4949762;28;20501;-77
2023/02/03 03:29:10;;;;;;;5.87;5.30;;;;;;;;;;4955096;28;20431;-76
2023/02/03 03:31:36;;;;;;;11.47;7.47;;;;;;;;;;4950795;28;20981;-76
2023/02/03 03:34:02;;;;;;;7.17;6.37;;;;;;;;;;4952016;28;20734;-75
2023/02/03 03:36:31;;;;;;;11.63;7.37;;;;;;;;;;4958916;28;20445;-75
2023/02/03 03:39:03;;;;;;;10.70;7.20;;;;;;;;;;4958959;28;20525;-75
2023/02/03 03:41:49;;;;;;;8.87;5.50;;;;;;;;;;4953150;28;20525;-75
2023/02/03 03:44:16;;;;;;;8.43;6.67;;;;;;;;;;4935991;28;20551;-75
2023/02/03 03:46:45;;;;;;;17.93;5.73;;;;;;;;;;4945987;28;20869;-75
2023/02/03 03:49:12;;;;;;;9.65;7.10;;;;;;;;;;4949053;28;20529;-75
2023/02/03 03:51:43;;;;;;;10.52;7.70;;;;;;;;;;4957887;28;20598;-76
2023/02/03 03:54:12;;;;;;;10.63;7.20;;;;;;;;;;4955600;28;20193;-77
2023/02/03 03:56:45;;;;;;;6.63;6.10;;;;;;;;;;4940257;28;20787;-76
2023/02/03 03:59:13;;;;;;;6.80;5.50;;;;;;;;;;4948805;28;20435;-76
2023/02/03 04:01:40;;;;;;;6.03;5.57;;;;;;;;;;4948595;28;20969;-76
2023/02/03 04:04:07;;;;;;;9.57;6.07;;;;;;;;;;4944631;28;20445;-75
2023/02/03 04:06:33;;;;;;;3.23;3.13;;;;;;;;;;4952483;28;20846;-75
2023/02/03 04:09:01;;;;;;;6.80;6.30;;;;;;;;;;4950448;28;20529;-76
2023/02/03 04:14:11;;;;;;;7.53;6.80;;;;;;;;;;4943635;28;20831;-76
2023/02/03 04:16:37;;;;;;;7.47;6.83;;;;;;;;;;4955799;28;20457;-76
2023/02/03 04:19:03;;;;;;;6.73;6.10;;;;;;;;;;4955149;28;20486;-76
2023/02/03 04:21:29;;;;;;;9.07;6.50;;;;;;;;;;4950784;28;21076;-75
2023/02/03 04:23:55;;;;;;;7.00;6.40;;;;;;;;;;4933205;29;20517;-76
2023/02/03 04:26:21;;;;;;;11.77;6.53;;;;;;;;;;4957324;28;20519;-76
2023/02/03 04:28:47;;;;;;;6.77;6.37;;;;;;;;;;4935025;28;20458;-76
2023/02/03 04:31:13;;;;;;;6.83;6.30;;;;;;;;;;4931161;29;21048;-75
2023/02/03 04:33:39;;;;;;;14.57;6.30;;;;;;;;;;4953826;28;20520;-75
2023/02/03 04:36:06;;;;;;;6.57;5.77;;;;;;;;;;4958855;28;20821;-76
2023/02/03 04:38:32;;;;;;;5.07;4.63;;;;;;;;;;4935141;28;20938;-76
2023/02/03 04:40:58;;;;;;;6.03;5.30;;;;;;;;;;4958898;28;20434;-75
2023/02/03 04:43:24;;;;;;;9.30;6.67;;;;;;;;;;4946664;28;20457;-76
2023/02/03 04:45:50;;;;;;;9.53;6.00;;;;;;;;;;4961927;28;20437;-75
2023/02/03 04:48:16;;;;;;;7.33;6.53;;;;;;;;;;4934854;28;20704;-75
2023/02/03 04:50:42;;;;;;;9.30;5.67;;;;;;;;;;4960239;28;20441;-74
2023/02/03 04:53:08;;;;;;;5.77;5.47;;;;;;;;;;4954763;28;20458;-75
2023/02/03 04:55:34;;;;;;;7.05;5.90;;;;;;;;;;4952584;28;20436;-75
2023/02/03 04:58:00;;;;;;;5.33;5.03;;;;;;;;;;4946550;29;20673;-76
2023/02/03 05:00:27;;;;;;;6.20;5.67;;;;;;;;;;4957729;28;20429;-75
2023/02/03 05:02:53;;;;;;;5.50;5.10;;;;;;;;;;4954806;28;20477;-75
2023/02/03 05:05:19;;;;;;;9.37;5.50;;;;;;;;;;4936055;28;20884;-76
2023/02/03 05:07:45;;;;;;;8.87;4.80;;;;;;;;;;4961172;28;20441;-78
2023/02/03 05:10:11;;;;;;;6.17;5.57;;;;;;;;;;4946384;28;20811;-74
2023/02/03 05:12:37;;;;;;;3.90;3.67;;;;;;;;;;4953308;28;20551;-75
2023/02/03 05:15:03;;;;;;;5.07;4.70;;;;;;;;;;4946346;28;20439;-76
2023/02/03 05:17:28;;;;;;;7.07;5.30;;;;;;;;;;4933631;28;20902;-77
2023/02/03 05:19:54;;;;;;;3.90;3.60;;;;;;;;;;4958984;28;20449;-75
2023/02/03 05:22:20;;;;;;;5.33;5.03;;;;;;;;;;4957996;28;20843;-75
2023/02/03 05:24:46;;;;;;;7.60;3.60;;;;;;;;;;4951836;28;20933;-76
2023/02/03 05:27:12;;;;;;;6.10;4.33;;;;;;;;;;4966377;28;20436;-75
2023/02/03 05:29:38;;;;;;;5.90;4.40;;;;;;;;;;4949290;28;20781;-76
2023/02/03 05:32:04;;;;;;;4.97;3.77;;;;;;;;;;4946042;28;20759;-75
2023/02/03 05:34:30;;;;;;;4.33;3.97;;;;;;;;;;4946106;28;20448;-75
2023/02/03 05:36:57;;;;;;;6.70;4.90;;;;;;;;;;4951019;28;20462;-75
2023/02/03 05:39:23;;;;;;;4.70;4.30;;;;;;;;;;4930702;28;20449;-76
2023/02/03 05:41:52;;;;;;;6.20;3.50;;;;;;;;;;4933975;29;20442;-75
2023/02/03 05:44:21;;;;;;;6.07;3.43;;;;;;;;;;4937371;28;21080;-75
2023/02/03 05:46:47;;;;;;;3.55;3.25;;;;;;;;;;4948408;28;20679;-75
2023/02/03 05:49:13;;;;;;;3.90;3.60;;;;;;;;;;4933262;28;20261;-76
2023/02/03 05:51:39;;;;;;;3.70;3.47;;;;;;;;;;4938098;29;20466;-76
2023/02/03 05:54:06;;;;;;;3.30;3.10;;;;;;;;;;4958475;28;20445;-75
2023/02/03 05:56:32;;;;;;;3.30;2.70;;;;;;;;;;4951526;28;20709;-76
2023/02/03 05:58:58;;;;;;;3.63;2.67;;;;;;;;;;4951167;28;20437;-75
2023/02/03 06:01:24;;;;;;;8.20;3.10;;;;;;;;;;4940270;29;20466;-75
2023/02/03 06:03:50;;;;;;;4.95;2.80;;;;;;;;;;4948008;28;20199;-76
2023/02/03 06:06:16;;;;;;;3.77;3.60;;;;;;;;;;4924004;29;20301;-75
2023/02/03 06:08:42;;;;;;;2.87;2.70;;;;;;;;;;4953934;28;20473;-76
2023/02/03 06:11:09;;;;;;;3.77;3.57;;;;;;;;;;4953619;28;20425;-75
2023/02/03 06:13:35;;;;;;;7.03;3.77;;;;;;;;;;4955789;28;20453;-76
2023/02/03 06:16:01;;;;;;;6.73;3.27;;;;;;;;;;4942763;29;20454;-76
2023/02/03 06:18:27;;;;;;;5.30;4.80;;;;;;;;;;4936038;28;20439;-75
2023/02/03 06:20:53;;;;;;;3.20;2.93;;;;;;;;;;4954082;28;20454;-77
2023/02/03 06:23:19;;;;;;;3.10;2.90;;;;;;;;;;4950313;28;20453;-76
2023/02/03 06:25:47;;;;;;;6.40;3.23;;;;;;;;;;4931269;29;20453;-75
2023/02/03 06:28:13;;;;;;;6.77;3.23;;;;;;;;;;4961252;28;20438;-76
2023/02/03 06:30:42;;;;;;;3.70;2.67;;;;;;;;;;4958189;28;20438;-76
2023/02/03 06:33:08;;;;;;;2.20;2.10;;;;;;;;;;4962197;28;20832;-76
2023/02/03 06:35:37;;;;;;;2.70;2.50;;;;;;;;;;4950660;28;20446;-77
2023/02/03 06:38:03;;;;;;;2.63;2.43;;;;;;;;;;4958856;28;20795;-76
2023/02/03 06:40:29;;;;;;;3.60;3.00;;;;;;;;;;4949108;28;20442;-77
2023/02/03 06:42:55;;;;;;;1.80;1.80;;;;;;;;;;4938404;29;20461;-78
2023/02/03 06:45:23;;;;;;;1.60;1.60;;;;;;;;;;4952989;28;20469;-77
2023/02/03 06:47:52;;;;;;;17.00;3.17;;;;;;;;;;4950567;28;20441;-76
2023/02/03 06:50:18;;;;;;;5.80;2.67;;;;;;;;;;4950349;28;20468;-76
2023/02/03 06:52:44;;;;;;;6.20;2.47;;;;;;;;;;4948631;28;21193;-75
2023/02/03 06:55:10;;;;;;;5.50;2.70;;;;;;;;;;4951487;28;20529;-74
2023/02/03 06:57:42;;;;;;;2.90;2.80;;;;;;;;;;4947544;28;20426;-74
2023/02/03 07:00:08;;;;;;;3.87;3.40;;;;;;;;;;4933246;28;20520;-76
2023/02/03 07:02:34;;;;;;;3.10;2.77;;;;;;;;;;4955750;28;20782;-75
2023/02/03 07:05:00;;;;;;;3.77;3.23;;;;;;;;;;4949514;28;20441;-75
2023/02/03 07:07:26;;;;;;;3.20;3.00;;;;;;;;;;4952747;28;20527;-75
2023/02/03 07:09:52;;;;;;;3.30;3.00;;;;;;;;;;4939293;28;20440;-76
2023/02/03 07:12:18;;;;;;;3.10;2.90;;;;;;;;;;4961551;28;20857;-77
2023/02/03 07:14:44;;;;;;;3.63;3.33;;;;;;;;;;4950519;28;20430;-75
2023/02/03 07:17:10;;;;;;;2.90;2.63;;;;;;;;;;4959031;28;20447;-76
2023/02/03 07:19:36;;;;;;;4.10;3.80;;;;;;;;;;4943287;28;20523;-75
2023/02/03 07:22:02;;;;;;;4.47;4.00;;;;;;;;;;4953210;28;20961;-75
2023/02/03 07:24:28;;;;;;;4.40;4.00;;;;;;;;;;4960810;28;20444;-76
2023/02/03 07:26:54;;;;;;;3.77;3.67;;;;;;;;;;4938939;28;20965;-78
2023/02/03 07:29:20;;;;;;;6.70;3.50;;;;;;;;;;4953390;28;20449;-76
2023/02/03 07:31:46;;;;;;;4.60;2.83;;;;;;;;;;4945772;28;20462;-75
2023/02/03 07:34:12;;;;;;;4.83;3.60;;;;;;;;;;4936202;28;20543;-74
2023/02/03 07:36:38;;;;;;;5.97;2.73;;;;;;;;;;4952506;28;20438;-76
2023/02/03 07:39:04;;;;;;;3.40;3.10;;;;;;;;;;4948411;28;20453;-76
2023/02/03 07:41:30;;;;;;;3.50;3.20;;;;;;;;;;4948468;28;20513;-77
2023/02/03 07:43:56;;;;;;;4.80;3.00;;;;;;;;;;4951049;28;20546;-76
2023/02/03 07:46:22;;;;;;;4.10;3.67;;;;;;;;;;4941092;28;20446;-76
2023/02/03 07:48:48;;;;;;;4.38;3.17;;;;;;;;;;4946248;29;20183;-76
2023/02/03 07:51:15;;;;;;;2.83;2.60;;;;;;;;;;4928241;29;20445;-76
2023/02/03 07:53:41;;;;;;;7.13;2.97;;;;;;;;;;4947124;28;20814;-74
2023/02/03 07:56:07;;;;;;;4.87;2.17;;;;;;;;;;4944583;28;21060;-74
2023/02/03 07:58:33;;;;;;;3.47;2.80;;;;;;;;;;4944476;28;20437;-76
2023/02/03 08:00:59;;;;;;;2.20;2.20;;;;;;;;;;4930850;28;20488;-76
2023/02/03 08:03:25;;;;;;;5.37;3.23;;;;;;;;;;4948970;28;20413;-76
2023/02/03 08:05:52;;;;;;;4.90;4.47;;;;;;;;;;4948889;28;20438;-76
2023/02/03 08:08:18;;;;;;;7.37;3.37;;;;;;;;;;4946687;28;20579;-76
2023/02/03 08:10:44;;;;;;;2.83;2.30;;;;;;;;;;4950779;28;20441;-78
2023/02/03 08:13:10;;;;;;;3.83;3.33;;;;;;;;;;4944090;28;20949;-77
2023/02/03 08:15:36;;;;;;;5.13;3.37;;;;;;;;;;4946872;28;20437;-75
2023/02/03 08:18:02;;;;;;;3.87;3.63;;;;;;;;;;4945034;28;20457;-76
2023/02/03 08:20:28;;;;;;;5.23;3.73;;;;;;;;;;4946368;28;20428;-78
2023/02/03 08:22:54;;;;;;;4.63;4.33;;;;;;;;;;4950170;28;20434;-76
2023/02/03 08:25:20;;;;;;;4.87;4.30;;;;;;;;;;4931960;29;21206;-78
2023/02/03 08:27:46;;;;;;;3.33;3.23;;;;;;;;;;4946714;28;20438;-77
2023/02/03 08:30:13;;;;;;;5.03;4.00;;;;;;;;;;4948661;28;20469;-77
2023/02/03 08:32:39;;;;;;;4.23;3.90;;;;;;;;;;4946679;28;20569;-77
2023/02/03 08:35:05;;;;;;;4.53;4.33;;;;;;;;;;4930533;29;20537;-76
2023/02/03 08:37:31;;;;;;;4.97;4.57;;;;;;;;;;4944275;28;20493;-77
2023/02/03 08:39:58;;;;;;;3.87;3.67;;;;;;;;;;4949002;28;20446;-76
2023/02/03 08:42:24;;;;;;;2.27;2.27;;;;;;;;;;4947587;28;20541;-77
2023/02/03 08:44:50;;;;;;;7.30;3.47;;;;;;;;;;4949689;28;20462;-78
2023/02/03 08:47:16;;;;;;;5.17;4.40;;;;;;;;;;4928624;29;20465;-78
2023/02/03 08:49:42;;;;;;;7.33;3.87;;;;;;;;;;4935905;28;20450;-79
2023/02/03 08:52:10;;;;;;;3.70;3.43;;;;;;;;;;4940654;29;20469;-76
2023/02/03 08:54:36;;;;;;;6.57;4.80;;;;;;;;;;4954474;28;20453;-77
2023/02/03 08:57:02;;;;;;;6.20;4.17;;;;;;;;;;4944937;28;20421;-76
2023/02/03 08:59:29;;;;;;;6.90;4.47;;;;;;;;;;4943113;28;20775;-77
2023/02/03 09:01:55;;;;;;;6.67;4.33;;;;;;;;;;4942332;29;20475;-78
2023/02/03 09:04:24;;;;;;;2.40;2.40;;;;;;;;;;4929754;29;20430;-78
2023/02/03 09:06:50;;;;;;;4.33;4.03;;;;;;;;;;4951776;28;20434;-78
2023/02/03 09:09:17;;;;;;;4.60;4.30;;;;;;;;;;4926631;29;20422;-77
2023/02/03 09:11:43;;;;;;;4.37;3.90;;;;;;;;;;4949500;28;20473;-78
2023/02/03 09:14:09;;;;;;;4.67;4.30;;;;;;;;;;4947682;28;20846;-77
2023/02/03 09:16:35;;;;;;;8.63;6.73;;;;;;;;;;4949349;28;20445;-77
2023/02/03 09:19:01;;;;;;;6.80;4.30;;;;;;;;;;4945755;29;20831;-77
2023/02/03 09:21:27;;;;;;;5.00;4.80;;;;;;;;;;4949059;28;20457;-77
2023/02/03 09:23:56;;;;;;;8.13;5.03;;;;;;;;;;4947037;28;20847;-78
2023/02/03 09:26:22;;;;;;;8.97;5.67;;;;;;;;;;4949938;28;20449;-76
2023/02/03 09:28:48;;;;;;;4.43;4.23;;;;;;;;;;4927452;29;20434;-77
2023/02/03 09:31:18;;;;;;;7.30;5.20;;;;;;;;;;4943333;28;20976;-78
2023/02/03 09:33:44;;;;;;;5.13;4.83;;;;;;;;;;4945527;28;20445;-76
2023/02/03 09:36:11;;;;;;;9.00;6.30;;;;;;;;;;4950309;28;20442;-78
2023/02/03 09:38:37;;;;;;;7.40;6.63;;;;;;;;;;4944916;28;20442;-78
2023/02/03 09:41:13;;;;;;;6.47;5.97;;;;;;;;;;4954075;28;21118;-77
2023/02/03 09:43:45;;;;;;;7.43;6.30;;;;;;;;;;4943225;28;20480;-77
2023/02/03 09:46:19;;;;;;;10.37;6.67;;;;;;;;;;4951217;28;20449;-76
2023/02/03 09:48:57;;;;;;;6.60;5.90;;;;;;;;;;4952058;28;21079;-77
2023/02/03 09:51:25;;;;;;;6.80;6.30;;;;;;;;;;4945124;28;20480;-76
2023/02/03 09:53:57;;;;;;;8.60;7.40;;;;;;;;;;4953650;28;20972;-76
2023/02/03 09:56:26;;;;;;;10.83;7.63;;;;;;;;;;4948370;28;20834;-77
2023/02/03 09:58:52;;;;;;;6.80;6.23;;;;;;;;;;4949520;28;20863;-79
2023/02/03 10:01:20;;;;;;;8.93;7.30;;;;;;;;;;4954860;28;20469;-77
2023/02/03 10:03:59;;;;;;;9.73;6.80;;;;;;;;;;4951706;28;20504;-77
2023/02/03 10:06:26;;;;;;;7.30;6.70;;;;;;;;;;4936152;28;20525;-77
2023/02/03 10:09:17;;;;;;;7.03;6.43;;;;;;;;;;4951295;28;20414;-77
2023/02/03 10:11:48;;;;;;;8.03;7.23;;;;;;;;;;4940164;28;20462;-77
2023/02/03 10:14:33;;;;;;;8.10;7.40;;;;;;;;;;4946721;28;20425;-78
2023/02/03 10:16:59;;;;;;;8.20;7.40;;;;;;;;;;4951214;28;20577;-78
2023/02/03 10:19:27;;;;;;;8.20;7.53;;;;;;;;;;4949770;28;21005;-77
2023/02/03 10:21:56;;;;;;;7.03;5.50;;;;;;;;;;4957058;28;20453;-77
2023/02/03 10:24:38;;;;;;;8.00;7.30;;;;;;;;;;4950977;28;20446;-77
2023/02/03 10:27:05;;;;;;;10.13;7.40;;;;;;;;;;4941016;28;20465;-75
2023/02/03 10:29:38;;;;;;;8.20;7.50;;;;;;;;;;4953603;28;20426;-75
2023/02/03 10:32:08;;;;;;;11.57;10.27;;;;;;;;;;4939849;28;20465;-76
2023/02/03 10:34:35;;;;;;;8.63;7.90;;;;;;;;;;4947870;28;20438;-77
2023/02/03 10:37:20;;;;;;;7.97;6.87;;;;;;;;;;4948896;28;20434;-78
2023/02/03 10:39:50;;;;;;;7.67;6.80;;;;;;;;;;4937152;29;20516;-78
2023/02/03 10:42:17;;;;;;;8.70;8.10;;;;;;;;;;4948928;28;20525;-77
2023/02/03 10:44:55;;;;;;;11.63;8.83;;;;;;;;;;4948536;28;20474;-78
2023/02/03 10:47:38;;;;;;;9.80;7.80;;;;;;;;;;4952286;28;20443;-78
2023/02/03 10:50:30;;;;;;;7.53;6.83;;;;;;;;;;4951804;28;20526;-77
2023/02/03 10:53:15;;;;;;;10.10;7.43;;;;;;;;;;4939926;29;20492;-75
2023/02/03 10:55:42;;;;;;;10.53;8.27;;;;;;;;;;4935531;28;20514;-75
2023/02/03 10:58:25;;;;;;;8.27;7.57;;;;;;;;;;4947690;29;20415;-77
2023/02/03 11:00:56;;;;;;;7.57;6.93;;;;;;;;;;4943755;28;20438;-77
2023/02/03 11:03:27;;;;;;;9.87;8.90;;;;;;;;;;4947498;29;20501;-75
2023/02/03 11:06:23;;;;;;;8.10;7.23;;;;;;;;;;4951994;28;20525;-77
2023/02/03 11:08:50;;;;;;;8.90;6.70;;;;;;;;;;4936197;29;20948;-75
2023/02/03 11:11:31;;;;;;;7.17;6.57;;;;;;;;;;4947148;28;21055;-76
2023/02/03 11:13:57;;;;;;;8.00;6.70;;;;;;;;;;4948311;28;20477;-75
2023/02/03 11:16:23;;;;;;;7.13;6.40;;;;;;;;;;4945392;28;20438;-77
2023/02/03 11:19:02;;;;;;;4.83;4.57;;;;;;;;;;4929927;29;20473;-75
2023/02/03 11:21:33;;;;;;;7.50;6.33;;;;;;;;;;4944038;28;20442;-78
2023/02/03 11:24:17;;;;;;;7.80;6.07;;;;;;;;;;4948242;28;20944;-75
2023/02/03 11:26:44;;;;;;;6.33;5.60;;;;;;;;;;4947688;28;20453;-77
2023/02/03 11:29:18;;;;;;;7.70;7.10;;;;;;;;;;4948536;28;20516;-75
2023/02/03 11:31:47;;;;;;;8.63;5.60;;;;;;;;;;4932621;29;20474;-75
2023/02/03 11:34:18;;;;;;;6.83;5.80;;;;;;;;;;4948827;28;20802;-76
2023/02/03 11:36:44;;;;;;;6.77;5.60;;;;;;;;;;4944874;28;20430;-76
2023/02/03 11:39:16;;;;;;;3.10;3.00;;;;;;;;;;4948056;28;20429;-77
2023/02/03 11:41:42;;;;;;;6.80;5.07;;;;;;;;;;4953989;28;20445;-77
2023/02/03 11:44:12;;;;;;;7.47;3.70;;;;;;;;;;4947639;28;20533;-76
2023/02/03 11:46:38;;;;;;;3.60;3.30;;;;;;;;;;4941908;28;20454;-78
2023/02/03 11:49:14;;;;;;;4.60;4.00;;;;;;;;;;4931597;28;20514;-77
2023/02/03 11:51:50;;;;;;;5.20;4.80;;;;;;;;;;4949030;28;20507;-76
2023/02/03 11:54:35;;;;;;;8.50;3.93;;;;;;;;;;4941645;28;20799;-77
2023/02/03 11:57:01;;;;;;;11.00;4.90;;;;;;;;;;4948098;28;20452;-76
2023/02/03 11:59:34;;;;;;;4.57;4.20;;;;;;;;;;4948779;28;20438;-78
2023/02/03 12:02:19;;;;;;;7.70;4.97;;;;;;;;;;4946836;29;21003;-76
2023/02/03 12:04:50;;;;;;;8.73;4.17;;;;;;;;;;4944496;28;20540;-77
2023/02/03 12:07:26;;;;;;;5.63;5.13;;;;;;;;;;4950542;28;20525;-76
2023/02/03 12:10:05;;;;;;;4.03;3.67;;;;;;;;;;4937885;28;20951;-75
2023/02/03 12:12:33;;;;;;;4.87;4.47;;;;;;;;;;4952126;28;20795;-76
2023/02/03 12:15:20;;;;;;;5.53;4.83;;;;;;;;;;4945181;28;20419;-77
2023/02/03 12:17:58;;;;;;;4.63;4.33;;;;;;;;;;4940029;28;20799;-76
2023/02/03 12:20:43;;;;;;;8.70;4.37;;;;;;;;;;4930130;29;20591;-77
2023/02/03 12:23:22;;;;;;;9.83;5.20;;;;;;;;;;4947174;28;20442;-76
2023/02/03 12:25:56;;;;;;;8.10;5.00;;;;;;;;;;4945444;29;20414;-77
2023/02/03 12:28:25;;;;;;;5.50;4.20;;;;;;;;;;4947262;28;20433;-76
2023/02/03 12:30:55;;;;;;;6.17;5.40;;;;;;;;;;4946082;28;20412;-76
2023/02/03 12:33:28;;;;;;;5.40;4.63;;;;;;;;;;4950629;28;20461;-78
2023/02/03 12:36:20;;;;;;;4.87;4.43;;;;;;;;;;4945994;28;20410;-76
2023/02/03 12:38:52;;;;;;;7.40;5.47;;;;;;;;;;4946321;28;20851;-75
2023/02/03 12:41:24;;;;;;;6.50;4.37;;;;;;;;;;4947904;28;20637;-77
2023/02/03 12:43:52;;;;;;;5.50;4.10;;;;;;;;;;4930261;29;20473;-76
2023/02/03 12:46:18;;;;;;;4.80;4.40;;;;;;;;;;4951941;28;20492;-76
2023/02/03 12:49:03;;;;;;;9.47;4.90;;;;;;;;;;4946566;28;20442;-76
2023/02/03 12:51:35;;;;;;;7.73;5.00;;;;;;;;;;4932238;29;20909;-77
2023/02/03 12:54:21;;;;;;;12.97;5.83;;;;;;;;;;4945405;28;20433;-77
2023/02/03 12:56:50;;;;;;;5.63;5.00;;;;;;;;;;4941853;29;20469;-77
2023/02/03 12:59:20;;;;;;;7.50;4.50;;;;;;;;;;4948926;28;20497;-77
2023/02/03 13:01:51;;;;;;;6.43;5.90;;;;;;;;;;4947652;28;20426;-76
2023/02/03 13:04:17;;;;;;;6.83;5.57;;;;;;;;;;4948491;28;20767;-79
2023/02/03 13:06:52;;;;;;;5.33;4.83;;;;;;;;;;4946098;28;20997;-77
2023/02/03 13:09:21;;;;;;;5.80;5.20;;;;;;;;;;4944587;28;20657;-78
2023/02/03 13:11:48;;;;;;;10.60;7.67;;;;;;;;;;4947479;28;20516;-77
2023/02/03 13:14:19;;;;;;;8.80;4.47;;;;;;;;;;4929761;29;20989;-77
2023/02/03 13:16:48;;;;;;;8.00;5.30;;;;;;;;;;4943721;29;20420;-78
2023/02/03 13:19:17;;;;;;;5.10;4.70;;;;;;;;;;4954146;28;20533;-75
2023/02/03 13:21:45;;;;;;;11.23;5.50;;;;;;;;;;4957729;28;20434;-77
2023/02/03 13:24:12;;;;;;;5.70;5.20;;;;;;;;;;4957739;28;20450;-79
2023/02/03 13:26:47;;;;;;;7.67;4.40;;;;;;;;;;4951849;28;20450;-75
2023/02/03 13:29:32;;;;;;;5.27;4.87;;;;;;;;;;4957486;28;20453;-76
2023/02/03 13:32:10;;;;;;;5.40;5.00;;;;;;;;;;4951931;28;20504;-76
2023/02/03 13:34:45;;;;;;;6.53;5.77;;;;;;;;;;4955408;28;20545;-77
2023/02/03 13:37:30;;;;;;;6.60;5.00;;;;;;;;;;4934964;29;20449;-76
2023/02/03 13:40:15;;;;;;;18.60;6.43;;;;;;;;;;4947608;29;20430;-76
2023/02/03 13:42:44;;;;;;;8.07;4.80;;;;;;;;;;4951623;28;20894;-77
2023/02/03 13:45:18;;;;;;;5.90;4.90;;;;;;;;;;4947174;29;20481;-77
2023/02/03 13:47:48;;;;;;;11.00;6.03;;;;;;;;;;4946915;28;20526;-77
2023/02/03 13:50:33;;;;;;;8.07;4.80;;;;;;;;;;4952188;28;20430;-76
2023/02/03 13:52:59;;;;;;;5.83;4.57;;;;;;;;;;4945355;28;20485;-76
2023/02/03 13:55:27;;;;;;;9.50;5.43;;;;;;;;;;4948839;29;20772;-75
2023/02/03 13:57:54;;;;;;;7.30;4.90;;;;;;;;;;4952559;28;20458;-76
2023/02/03 14:00:38;;;;;;;10.37;4.73;;;;;;;;;;4947946;29;20425;-76
2023/02/03 14:03:14;;;;;;;10.50;4.40;;;;;;;;;;4942072;29;20442;-77
2023/02/03 14:05:48;;;;;;;5.17;4.67;;;;;;;;;;4948245;29;20405;-76
2023/02/03 14:08:23;;;;;;;8.80;4.70;;;;;;;;;;4949732;28;20483;-76
2023/02/03 14:11:09;;;;;;;7.33;5.10;;;;;;;;;;4928086;29;20428;-75
2023/02/03 14:13:37;;;;;;;4.30;4.00;;;;;;;;;;4940686;28;20473;-76
2023/02/03 14:16:22;;;;;;;6.30;4.73;;;;;;;;;;4945883;28;20427;-76
2023/02/03 14:18:48;;;;;;;5.07;4.77;;;;;;;;;;4942121;29;20457;-76
2023/02/03 14:21:24;;;;;;;4.63;4.37;;;;;;;;;;4952674;28;20490;-76
2023/02/03 14:23:52;;;;;;;3.53;3.43;;;;;;;;;;4922963;29;20521;-76
2023/02/03 14:26:29;;;;;;;7.60;5.30;;;;;;;;;;4954536;28;20970;-75
2023/02/03 14:28:55;;;;;;;12.57;4.30;;;;;;;;;;4944136;28;20457;-76
2023/02/03 14:31:23;;;;;;;7.67;3.10;;;;;;;;;;4939573;29;20430;-75
2023/02/03 14:33:49;;;;;;;11.87;3.40;;;;;;;;;;4948259;28;20536;-75
2023/02/03 14:36:35;;;;;;;8.77;2.70;;;;;;;;;;4948373;28;20855;-76
2023/02/03 14:39:04;;;;;;;17.07;4.17;;;;;;;;;;4952966;28;20429;-76
2023/02/03 14:41:33;;;;;;;5.57;2.33;;;;;;;;;;4950546;28;20495;-73
2023/02/03 14:44:07;;;;;;;16.53;3.83;;;;;;;;;;4959142;28;20542;-75
2023/02/03 14:46:43;;;;;;;14.07;4.17;;;;;;;;;;4931606;29;20529;-76
2023/02/03 14:49:28;;;;;;;7.17;2.30;;;;;;;;;;4944740;28;20504;-75
2023/02/03 14:51:57;;;;;;;15.33;3.77;;;;;;;;;;4948582;28;20520;-75
2023/02/03 14:54:40;;;;;;;4.23;2.80;;;;;;;;;;4944827;28;20441;-75